createdAt,value
2023-09-15T00:00:45.793Z,101671.69
2023-09-15T00:03:12.789Z,101667.34
2023-09-15T00:05:39.406Z,101677.78
2023-09-15T00:08:06.514Z,101675.13
2023-09-15T00:10:35.992Z,101667.34
2023-09-15T00:13:03.419Z,101664.75
2023-09-15T00:15:30.021Z,101655.19
2023-09-15T00:17:57.046Z,101669.94
2023-09-15T00:20:25.403Z,101660.38
2023-09-15T00:22:57.211Z,101656.03
2023-09-15T00:25:27.379Z,101654.31
2023-09-15T00:27:56.354Z,101656.03
2023-09-15T00:30:24.257Z,101649.09
2023-09-15T00:32:51.616Z,101647.38
2023-09-15T00:35:20.154Z,101647.38
2023-09-15T00:37:47.591Z,101639.56
2023-09-15T00:40:16.311Z,101651.72
2023-09-15T00:42:44.662Z,101649.97
2023-09-15T00:45:15.671Z,101647.38
2023-09-15T00:47:50.424Z,101643.91
2023-09-15T00:50:19.879Z,101643.00
2023-09-15T00:52:52.325Z,101637.84
2023-09-15T00:55:21.692Z,101644.78
2023-09-15T00:57:51.606Z,101652.56
2023-09-15T01:00:18.952Z,101656.94
2023-09-15T01:02:46.219Z,101664.72
2023-09-15T01:05:20.798Z,101661.25
2023-09-15T01:07:48.541Z,101658.59
2023-09-15T01:10:15.587Z,101655.09
2023-09-15T01:12:43.882Z,101651.63
2023-09-15T01:15:10.669Z,101643.00
2023-09-15T01:18:06.560Z,101633.41
2023-09-15T01:20:59.579Z,101631.66
2023-09-15T01:23:47.903Z,101629.03
2023-09-15T01:26:33.157Z,101616.91
2023-09-15T01:29:07.063Z,101617.72
2023-09-15T01:31:35.535Z,101618.66
2023-09-15T01:34:02.165Z,101619.53
2023-09-15T01:36:28.544Z,101625.56
2023-09-15T01:38:54.904Z,101615.16
2023-09-15T01:41:21.648Z,101624.69
2023-09-15T01:43:47.970Z,101623.81
2023-09-15T01:46:14.485Z,101629.81
2023-09-15T01:48:41.766Z,101618.53
2023-09-15T01:51:09.759Z,101625.50
2023-09-15T01:53:37.578Z,101621.13
2023-09-15T01:56:04.235Z,101631.53
2023-09-15T01:58:30.693Z,101623.72
2023-09-15T02:00:57.325Z,101629.75
2023-09-15T02:03:23.966Z,101625.44
2023-09-15T02:05:50.512Z,101625.44
2023-09-15T02:08:16.829Z,101626.31
2023-09-15T02:10:43.197Z,101628.06
2023-09-15T02:13:09.612Z,101630.72
2023-09-15T02:15:36.077Z,101648.00
2023-09-15T02:18:02.645Z,101642.75
2023-09-15T02:20:29.892Z,101643.59
2023-09-15T02:22:58.203Z,101636.69
2023-09-15T02:25:24.716Z,101637.56
2023-09-15T02:27:51.162Z,101636.63
2023-09-15T02:30:17.598Z,101641.03
2023-09-15T02:32:45.664Z,101642.78
2023-09-15T02:35:12.208Z,101649.72
2023-09-15T02:37:38.746Z,101646.16
2023-09-15T02:40:06.721Z,101643.56
2023-09-15T02:42:35.673Z,101638.31
2023-09-15T02:45:06.236Z,101623.63
2023-09-15T02:47:33.300Z,101615.84
2023-09-15T02:49:59.792Z,101613.22
2023-09-15T02:52:26.404Z,101614.91
2023-09-15T02:54:52.875Z,101610.66
2023-09-15T02:57:19.210Z,101612.44
2023-09-15T02:59:45.597Z,101625.41
2023-09-15T03:02:13.959Z,101626.28
2023-09-15T03:04:41.233Z,101628.00
2023-09-15T03:07:08.195Z,101617.47
2023-09-15T03:09:34.766Z,101610.56
2023-09-15T03:12:01.157Z,101594.06
2023-09-15T03:14:27.586Z,101591.50
2023-09-15T03:16:54.587Z,101585.44
2023-09-15T03:19:22.525Z,101583.69
2023-09-15T03:21:48.922Z,101575.03
2023-09-15T03:24:15.586Z,101568.06
2023-09-15T03:26:41.986Z,101559.47
2023-09-15T03:29:08.512Z,101557.81
2023-09-15T03:31:35.326Z,101572.47
2023-09-15T03:34:02.450Z,101573.31
2023-09-15T03:36:30.122Z,101578.47
2023-09-15T03:38:59.641Z,101573.28
2023-09-15T03:41:27.374Z,101573.31
2023-09-15T03:43:53.871Z,101571.50
2023-09-15T03:46:20.311Z,101567.19
2023-09-15T03:48:47.053Z,101572.41
2023-09-15T03:51:14.513Z,101567.25
2023-09-15T03:53:40.874Z,101565.44
2023-09-15T03:56:07.302Z,101560.25
2023-09-15T03:58:33.852Z,101562.84
2023-09-15T04:01:00.244Z,101556.78
2023-09-15T04:03:27.594Z,101562.84
2023-09-15T04:05:54.177Z,101563.66
2023-09-15T04:08:20.589Z,101560.28
2023-09-15T04:10:46.973Z,101562.84
2023-09-15T04:13:13.396Z,101564.66
2023-09-15T04:15:40.436Z,101572.47
2023-09-15T04:18:09.135Z,101578.47
2023-09-15T04:20:45.457Z,101574.09
2023-09-15T04:23:12.827Z,101575.00
2023-09-15T04:25:39.173Z,101581.09
2023-09-15T04:28:05.711Z,101583.66
2023-09-15T04:30:32.107Z,101582.84
2023-09-15T04:33:00.150Z,101583.69
2023-09-15T04:35:26.797Z,101575.94
2023-09-15T04:37:53.199Z,101568.13
2023-09-15T04:40:19.654Z,101558.63
2023-09-15T04:42:46.275Z,101551.72
2023-09-15T04:45:12.768Z,101550.03
2023-09-15T04:47:39.708Z,101556.13
2023-09-15T04:50:07.277Z,101548.38
2023-09-15T04:52:33.928Z,101553.63
2023-09-15T04:55:00.651Z,101563.13
2023-09-15T04:57:27.033Z,101556.19
2023-09-15T04:59:54.650Z,101559.63
2023-09-15T05:02:24.547Z,101561.38
2023-09-15T05:04:53.924Z,101552.69
2023-09-15T05:07:20.631Z,101551.06
2023-09-15T05:09:47.114Z,101550.19
2023-09-15T05:12:16.088Z,101556.28
2023-09-15T05:14:42.505Z,101545.00
2023-09-15T05:17:08.860Z,101549.34
2023-09-15T05:19:35.486Z,101557.16
2023-09-15T05:22:01.916Z,101558.03
2023-09-15T05:24:28.311Z,101558.03
2023-09-15T05:26:54.699Z,101565.84
2023-09-15T05:29:21.085Z,101563.22
2023-09-15T05:31:47.506Z,101574.47
2023-09-15T05:34:14.226Z,101574.50
2023-09-15T05:36:40.545Z,101570.16
2023-09-15T05:39:06.867Z,101562.38
2023-09-15T05:41:33.229Z,101560.59
2023-09-15T05:43:59.748Z,101568.41
2023-09-15T05:46:26.870Z,101566.69
2023-09-15T05:48:53.482Z,101569.28
2023-09-15T05:51:21.714Z,101557.13
2023-09-15T05:53:48.090Z,101553.66
2023-09-15T05:56:14.777Z,101543.22
2023-09-15T05:58:42.610Z,101529.34
2023-09-15T06:01:09.377Z,101523.25
2023-09-15T06:03:37.605Z,101521.50
2023-09-15T06:06:04.419Z,101512.75
2023-09-15T06:08:31.002Z,101515.31
2023-09-15T06:10:58.017Z,101520.53
2023-09-15T06:13:24.423Z,101515.19
2023-09-15T06:15:50.898Z,101514.22
2023-09-15T06:18:17.483Z,101516.75
2023-09-15T06:20:45.551Z,101524.47
2023-09-15T06:23:11.836Z,101532.16
2023-09-15T06:25:41.242Z,101546.91
2023-09-15T06:28:20.685Z,101554.75
2023-09-15T06:30:48.274Z,101565.09
2023-09-15T06:33:14.744Z,101564.06
2023-09-15T06:35:41.394Z,101570.09
2023-09-15T06:38:07.952Z,101589.09
2023-09-15T06:40:37.718Z,101593.41
2023-09-15T06:43:07.530Z,101596.72
2023-09-15T06:45:35.706Z,101610.59
2023-09-15T06:48:02.856Z,101633.16
2023-09-15T06:50:29.663Z,101636.53
2023-09-15T06:52:56.071Z,101646.03
2023-09-15T06:55:22.625Z,101657.19
2023-09-15T06:57:49.361Z,101672.69
2023-09-15T07:00:17.202Z,101679.50
2023-09-15T07:02:43.570Z,101689.88
2023-09-15T07:05:10.019Z,101705.50
2023-09-15T07:07:36.566Z,101715.06
2023-09-15T07:10:03.687Z,101714.88
2023-09-15T07:12:30.131Z,101723.47
2023-09-15T07:14:58.805Z,101740.19
2023-09-15T07:17:25.563Z,101739.97
2023-09-15T07:19:52.097Z,101746.94
2023-09-15T07:22:18.461Z,101749.34
2023-09-15T07:24:44.892Z,101746.50
2023-09-15T07:27:11.333Z,101755.09
2023-09-15T07:29:38.564Z,101763.84
2023-09-15T07:32:06.443Z,101760.09
2023-09-15T07:34:33.216Z,101770.63
2023-09-15T07:37:01.737Z,101768.91
2023-09-15T07:39:30.642Z,101768.81
2023-09-15T07:41:56.989Z,101773.72
2023-09-15T07:44:23.669Z,101777.69
2023-09-15T07:46:50.137Z,101781.09
2023-09-15T07:49:16.611Z,101779.00
2023-09-15T07:51:43.102Z,101781.84
2023-09-15T07:54:09.769Z,101777.38
2023-09-15T07:56:37.969Z,101779.50
2023-09-15T07:59:04.689Z,101773.19
2023-09-15T08:01:31.166Z,101780.75
2023-09-15T08:03:57.799Z,101782.44
2023-09-15T08:06:27.353Z,101786.31
2023-09-15T08:08:54.115Z,101788.59
2023-09-15T08:11:20.549Z,101793.53
2023-09-15T08:13:47.207Z,101803.31
2023-09-15T08:16:14.098Z,101803.47
2023-09-15T08:18:41.141Z,101796.19
2023-09-15T08:21:07.498Z,101805.84
2023-09-15T08:23:34.424Z,101811.75
2023-09-15T08:26:02.342Z,101810.28
2023-09-15T08:28:29.226Z,101812.34
2023-09-15T08:30:56.083Z,101812.41
2023-09-15T08:33:22.694Z,101811.47
2023-09-15T08:35:49.104Z,101811.97
2023-09-15T08:38:15.432Z,101813.13
2023-09-15T08:41:09.394Z,101805.81
2023-09-15T08:43:37.107Z,101802.00
2023-09-15T08:46:06.815Z,101806.81
2023-09-15T08:48:43.689Z,101801.78
2023-09-15T08:51:10.868Z,101799.69
2023-09-15T08:53:38.143Z,101803.81
2023-09-15T08:56:05.202Z,101798.13
2023-09-15T08:58:32.174Z,101805.19
2023-09-15T09:00:59.966Z,101802.09
2023-09-15T09:03:30.141Z,101799.69
2023-09-15T09:05:57.781Z,101801.81
2023-09-15T09:08:25.152Z,101803.25
2023-09-15T09:10:52.581Z,101791.69
2023-09-15T09:13:33.795Z,101790.84
2023-09-15T09:16:08.969Z,101792.22
2023-09-15T09:18:35.461Z,101791.56
2023-09-15T09:21:05.419Z,101793.28
2023-09-15T09:23:32.630Z,101801.53
2023-09-15T09:26:01.188Z,101797.28
2023-09-15T09:28:28.402Z,101797.03
2023-09-15T09:30:58.101Z,101796.06
2023-09-15T09:33:24.776Z,101795.50
2023-09-15T09:35:51.184Z,101798.34
2023-09-15T09:38:17.810Z,101798.13
2023-09-15T09:40:45.602Z,101794.63
2023-09-15T09:43:16.925Z,101791.13
2023-09-15T09:45:49.859Z,101793.41
2023-09-15T09:48:17.423Z,101788.78
2023-09-15T09:50:44.433Z,101780.31
2023-09-15T09:53:10.813Z,101767.06
2023-09-15T09:55:37.270Z,101769.47
2023-09-15T09:58:06.676Z,101766.22
2023-09-15T10:00:37.248Z,101762.13
2023-09-15T10:03:04.077Z,101760.69
2023-09-15T10:05:32.294Z,101754.69
2023-09-15T10:07:59.360Z,101762.13
2023-09-15T10:10:27.885Z,101753.03
2023-09-15T10:12:54.864Z,101748.53
2023-09-15T10:15:23.222Z,101756.94
2023-09-15T10:17:51.846Z,101753.91
2023-09-15T10:20:19.439Z,101756.09
2023-09-15T10:22:47.597Z,101752.25
2023-09-15T10:25:22.198Z,101744.19
2023-09-15T10:27:49.376Z,101747.78
2023-09-15T10:30:15.851Z,101746.75
2023-09-15T10:32:44.843Z,101745.53
2023-09-15T10:35:12.479Z,101734.78
2023-09-15T10:37:43.137Z,101742.19
2023-09-15T10:40:11.713Z,101736.28
2023-09-15T10:42:51.426Z,101732.03
2023-09-15T10:45:18.240Z,101727.84
2023-09-15T10:47:55.887Z,101730.13
2023-09-15T10:50:41.235Z,101731.69
2023-09-15T10:53:11.761Z,101732.34
2023-09-15T10:55:39.560Z,101726.78
2023-09-15T10:58:06.519Z,101726.13
2023-09-15T11:00:33.835Z,101718.78
2023-09-15T11:03:01.707Z,101720.13
2023-09-15T11:05:28.708Z,101716.41
2023-09-15T11:07:57.298Z,101713.88
2023-09-15T11:10:33.075Z,101717.31
2023-09-15T11:13:04.512Z,101702.75
2023-09-15T11:15:31.252Z,101704.38
2023-09-15T11:17:58.013Z,101704.13
2023-09-15T11:20:24.613Z,101698.53
2023-09-15T11:22:57.879Z,101704.81
2023-09-15T11:25:24.726Z,101698.28
2023-09-15T11:27:51.790Z,101705.34
2023-09-15T11:30:19.292Z,101703.31
2023-09-15T11:32:46.559Z,101699.75
2023-09-15T11:35:13.501Z,101691.69
2023-09-15T11:37:42.568Z,101691.13
2023-09-15T11:40:19.920Z,101687.28
2023-09-15T11:42:54.167Z,101681.75
2023-09-15T11:45:22.282Z,101680.28
2023-09-15T11:47:48.863Z,101678.34
2023-09-15T11:50:15.715Z,101678.97
2023-09-15T11:52:42.735Z,101674.28
2023-09-15T11:55:23.905Z,101673.59
2023-09-15T11:57:52.157Z,101668.75
2023-09-15T12:00:23.392Z,101674.75
2023-09-15T12:02:51.331Z,101666.59
2023-09-15T12:05:20.465Z,101669.53
2023-09-15T12:07:48.386Z,101667.63
2023-09-15T12:10:16.550Z,101661.81
2023-09-15T12:12:44.297Z,101661.03
2023-09-15T12:15:11.138Z,101653.34
2023-09-15T12:17:42.772Z,101653.22
2023-09-15T12:20:09.696Z,101653.97
2023-09-15T12:22:41.120Z,101652.09
2023-09-15T12:25:20.253Z,101651.50
2023-09-15T12:27:47.745Z,101643.59
2023-09-15T12:30:15.640Z,101647.66
2023-09-15T12:32:45.748Z,101639.66
2023-09-15T12:35:13.724Z,101641.75
2023-09-15T12:37:43.545Z,101638.28
2023-09-15T12:40:11.671Z,101632.31
2023-09-15T12:42:38.813Z,101632.06
2023-09-15T12:45:06.455Z,101643.19
2023-09-15T12:47:34.246Z,101647.81
2023-09-15T12:50:01.291Z,101657.22
2023-09-15T12:52:27.790Z,101639.94
2023-09-15T12:54:54.210Z,101637.09
2023-09-15T12:57:20.605Z,101633.91
2023-09-15T12:59:46.998Z,101630.91
2023-09-15T13:02:14.475Z,101635.16
2023-09-15T13:04:41.072Z,101632.13
2023-09-15T13:07:07.687Z,101634.69
2023-09-15T13:09:34.174Z,101621.88
2023-09-15T13:12:01.716Z,101613.78
2023-09-15T13:14:30.161Z,101606.88
2023-09-15T13:16:57.138Z,101602.66
2023-09-15T13:19:25.476Z,101605.78
2023-09-15T13:21:52.002Z,101607.16
2023-09-15T13:24:18.735Z,101599.44
2023-09-15T13:26:45.160Z,101600.88
2023-09-15T13:29:11.848Z,101601.66
2023-09-15T13:31:38.527Z,101597.28
2023-09-15T13:34:04.980Z,101593.75
2023-09-15T13:36:31.360Z,101592.16
2023-09-15T13:38:57.732Z,101594.97
2023-09-15T13:41:25.744Z,101590.72
2023-09-15T13:43:52.110Z,101586.47
2023-09-15T13:46:18.637Z,101578.72
2023-09-15T13:48:45.051Z,101576.25
2023-09-15T13:51:11.492Z,101577.84
2023-09-15T13:53:38.287Z,101581.66
2023-09-15T13:56:06.877Z,101566.91
2023-09-15T13:58:40.290Z,101565.09
2023-09-15T14:01:08.195Z,101568.56
2023-09-15T14:03:35.588Z,101552.91
2023-09-15T14:06:02.420Z,101554.66
2023-09-15T14:08:29.360Z,101557.44
2023-09-15T14:10:55.780Z,101555.84
2023-09-15T14:13:23.004Z,101556.03
2023-09-15T14:15:50.326Z,101552.19
2023-09-15T14:18:17.194Z,101553.47
2023-09-15T14:20:43.732Z,101546.47
2023-09-15T14:23:10.371Z,101543.00
2023-09-15T14:25:36.744Z,101544.22
2023-09-15T14:28:03.761Z,101547.59
2023-09-15T14:30:30.433Z,101549.88
2023-09-15T14:32:57.906Z,101544.00
2023-09-15T14:35:24.699Z,101545.72
2023-09-15T14:37:51.141Z,101548.31
2023-09-15T14:40:17.582Z,101545.22
2023-09-15T14:42:44.182Z,101539.63
2023-09-15T14:45:10.907Z,101538.38
2023-09-15T14:47:37.589Z,101546.31
2023-09-15T14:50:06.242Z,101536.72
2023-09-15T14:52:33.398Z,101535.63
2023-09-15T14:54:59.841Z,101527.25
2023-09-15T14:57:26.221Z,101524.59
2023-09-15T14:59:53.671Z,101522.25
2023-09-15T15:02:20.335Z,101522.19
2023-09-15T15:04:46.926Z,101528.81
2023-09-15T15:07:13.460Z,101525.53
2023-09-15T15:09:40.034Z,101525.53
2023-09-15T15:12:07.029Z,101524.59
2023-09-15T15:14:33.649Z,101526.38
2023-09-15T15:17:00.855Z,101529.69
2023-09-15T15:19:27.270Z,101532.91
2023-09-15T15:21:53.900Z,101533.03
2023-09-15T15:24:20.538Z,101520.22
2023-09-15T15:26:46.916Z,101524.09
2023-09-15T15:29:13.353Z,101519.88
2023-09-15T15:31:39.732Z,101511.56
2023-09-15T15:34:06.059Z,101512.22
2023-09-15T15:36:32.861Z,101509.78
2023-09-15T15:38:59.385Z,101503.19
2023-09-15T15:41:25.789Z,101513.94
2023-09-15T15:43:54.116Z,101499.03
2023-09-15T15:46:21.936Z,101513.13
2023-09-15T15:48:48.857Z,101506.78
2023-09-15T15:51:15.633Z,101513.22
2023-09-15T15:53:42.253Z,101513.19
2023-09-15T15:56:08.799Z,101515.22
2023-09-15T15:58:35.958Z,101517.16
2023-09-15T16:01:02.613Z,101510.44
2023-09-15T16:03:31.908Z,101516.22
2023-09-15T16:05:58.387Z,101513.72
2023-09-15T16:08:25.327Z,101512.16
2023-09-15T16:10:51.925Z,101507.00
2023-09-15T16:13:18.283Z,101508.13
2023-09-15T16:15:46.379Z,101501.25
2023-09-15T16:18:29.602Z,101501.59
2023-09-15T16:20:57.233Z,101512.16
2023-09-15T16:23:23.876Z,101498.00
2023-09-15T16:25:50.284Z,101504.69
2023-09-15T16:28:16.683Z,101495.84
2023-09-15T16:30:47.420Z,101498.16
2023-09-15T16:33:14.005Z,101492.72
2023-09-15T16:35:43.278Z,101491.28
2023-09-15T16:38:10.310Z,101497.63
2023-09-15T16:40:38.051Z,101495.44
2023-09-15T16:43:05.550Z,101495.53
2023-09-15T16:45:33.471Z,101505.41
2023-09-15T16:48:00.765Z,101503.59
2023-09-15T16:50:28.055Z,101503.16
2023-09-15T16:52:55.049Z,101497.88
2023-09-15T16:55:21.577Z,101497.97
2023-09-15T16:57:47.998Z,101498.03
2023-09-15T17:00:17.168Z,101497.03
2023-09-15T17:02:44.027Z,101491.03
2023-09-15T17:05:11.657Z,101487.38
2023-09-15T17:07:38.968Z,101491.72
2023-09-15T17:10:09.563Z,101491.78
2023-09-15T17:12:36.332Z,101492.22
2023-09-15T17:15:04.252Z,101494.00
2023-09-15T17:17:30.793Z,101497.75
2023-09-15T17:19:57.244Z,101495.97
2023-09-15T17:22:23.842Z,101498.97
2023-09-15T17:24:50.582Z,101499.19
2023-09-15T17:27:17.480Z,101493.81
2023-09-15T17:29:44.107Z,101494.28
2023-09-15T17:32:10.776Z,101489.41
2023-09-15T17:34:37.234Z,101489.50
2023-09-15T17:37:03.931Z,101495.22
2023-09-15T17:39:30.418Z,101492.63
2023-09-15T17:41:57.227Z,101487.53
2023-09-15T17:44:24.527Z,101491.47
2023-09-15T17:46:50.944Z,101490.72
2023-09-15T17:49:17.725Z,101497.66
2023-09-15T17:51:44.197Z,101487.50
2023-09-15T17:54:11.676Z,101487.75
2023-09-15T17:56:38.143Z,101485.84
2023-09-15T17:59:05.021Z,101484.28
2023-09-15T18:01:31.563Z,101478.19
2023-09-15T18:03:58.267Z,101469.75
2023-09-15T18:06:24.733Z,101470.03
2023-09-15T18:08:51.453Z,101477.16
2023-09-15T18:11:18.147Z,101471.19
2023-09-15T18:13:47.019Z,101465.00
2023-09-15T18:16:17.683Z,101465.72
2023-09-15T18:18:45.751Z,101471.09
2023-09-15T18:21:12.717Z,101464.38
2023-09-15T18:23:39.107Z,101462.75
2023-09-15T18:26:05.705Z,101458.88
2023-09-15T18:28:32.002Z,101440.94
2023-09-15T18:30:58.480Z,101439.28
2023-09-15T18:33:25.627Z,101426.19
2023-09-15T18:35:52.210Z,101420.41
2023-09-15T18:38:18.605Z,101421.19
2023-09-15T18:40:44.957Z,101419.69
2023-09-15T18:43:11.370Z,101420.88
2023-09-15T18:45:41.979Z,101424.53
2023-09-15T18:48:08.540Z,101410.06
2023-09-15T18:50:35.384Z,101405.84
2023-09-15T18:53:02.249Z,101406.25
2023-09-15T18:55:28.903Z,101404.25
2023-09-15T18:57:55.341Z,101403.78
2023-09-15T19:00:21.813Z,101397.19
2023-09-15T19:02:49.510Z,101395.25
2023-09-15T19:05:16.315Z,101388.31
2023-09-15T19:07:42.865Z,101389.38
2023-09-15T19:10:09.621Z,101381.53
2023-09-15T19:12:36.081Z,101385.41
2023-09-15T19:15:02.986Z,101375.84
2023-09-15T19:19:58.568Z,101364.88
2023-09-15T19:22:24.906Z,101364.88
2023-09-15T19:24:51.423Z,101363.19
2023-09-15T19:27:17.820Z,101358.84
2023-09-15T19:29:44.146Z,101355.97
2023-09-15T19:32:10.502Z,101352.78
2023-09-15T19:34:36.960Z,101353.53
2023-09-15T19:37:03.472Z,101355.47
2023-09-15T19:39:29.892Z,101352.59
2023-09-15T19:41:56.530Z,101353.06
2023-09-15T19:44:23.002Z,101351.22
2023-09-15T19:46:50.510Z,101352.53
2023-09-15T19:49:17.014Z,101355.38
2023-09-15T19:51:44.737Z,101339.94
2023-09-15T19:54:11.178Z,101327.91
2023-09-15T19:56:37.550Z,101328.84
2023-09-15T19:59:04.921Z,101321.19
2023-09-15T20:01:31.293Z,101321.91
2023-09-15T20:03:57.840Z,101322.09
2023-09-15T20:06:24.287Z,101319.34
2023-09-15T20:08:50.881Z,101322.91
2023-09-15T20:11:17.534Z,101317.94
2023-09-15T20:13:44.540Z,101314.34
2023-09-15T20:16:16.140Z,101319.78
2023-09-15T20:18:43.146Z,101310.28
2023-09-15T20:21:10.170Z,101317.81
2023-09-15T20:23:39.851Z,101324.09
2023-09-15T20:26:06.580Z,101330.06
2023-09-15T20:28:33.451Z,101321.13
2023-09-15T20:30:59.887Z,101310.66
2023-09-15T20:33:26.612Z,101310.22
2023-09-15T20:35:53.185Z,101312.16
2023-09-15T20:38:19.608Z,101312.41
2023-09-15T20:40:45.966Z,101294.13
2023-09-15T20:43:13.067Z,101294.06
2023-09-15T20:45:39.671Z,101293.00
2023-09-15T20:48:06.116Z,101294.84
2023-09-15T20:50:32.563Z,101292.94
2023-09-15T20:52:59.098Z,101290.59
2023-09-15T20:55:26.424Z,101296.59
2023-09-15T20:57:52.806Z,101296.69
2023-09-15T21:00:19.411Z,101299.34
2023-09-15T21:02:45.880Z,101288.16
2023-09-15T21:05:15.790Z,101284.81
2023-09-15T21:07:43.291Z,101273.34
2023-09-15T21:10:09.989Z,101278.41
2023-09-15T21:12:37.687Z,101285.22
2023-09-15T21:15:05.516Z,101275.50
2023-09-15T21:17:32.831Z,101283.00
2023-09-15T21:19:59.770Z,101288.19
2023-09-15T21:22:26.485Z,101296.75
2023-09-15T21:24:52.920Z,101295.19
2023-09-15T21:27:19.623Z,101308.25
2023-09-15T21:29:47.825Z,101303.16
2023-09-15T21:32:15.419Z,101303.06
2023-09-15T21:34:42.697Z,101311.63
2023-09-15T21:37:09.119Z,101315.44
2023-09-15T21:39:35.761Z,101327.94
2023-09-15T21:42:03.790Z,101322.69
2023-09-15T21:44:30.114Z,101329.63
2023-09-15T21:46:56.563Z,101332.25
2023-09-15T21:49:22.926Z,101332.31
2023-09-15T21:51:49.620Z,101328.94
2023-09-15T21:54:16.164Z,101328.84
2023-09-15T21:56:43.015Z,101322.91
2023-09-15T21:59:09.384Z,101319.25
2023-09-15T22:01:35.716Z,101313.88
2023-09-15T22:04:02.208Z,101322.88
2023-09-15T22:06:28.870Z,101322.75
2023-09-15T22:08:55.366Z,101327.94
2023-09-15T22:11:22.170Z,101333.84
2023-09-15T22:13:48.579Z,101334.63
2023-09-15T22:16:14.953Z,101334.56
2023-09-15T22:18:41.410Z,101339.75
2023-09-15T22:21:08.423Z,101338.78
2023-09-15T22:23:35.588Z,101330.88
2023-09-15T22:26:02.515Z,101335.34
2023-09-15T22:28:29.984Z,101335.34
2023-09-15T22:30:56.588Z,101337.09
2023-09-15T22:33:23.044Z,101339.59
2023-09-15T22:35:49.465Z,101338.00
2023-09-15T22:38:16.920Z,101333.56
2023-09-15T22:40:46.052Z,101336.19
2023-09-15T22:43:13.782Z,101331.09
2023-09-15T22:45:40.629Z,101329.75
2023-09-15T22:48:15.058Z,101317.81
2023-09-15T22:50:43.883Z,101311.00
2023-09-15T22:53:10.669Z,101309.88
2023-09-15T22:55:37.045Z,101315.88
2023-09-15T22:58:03.868Z,101327.06
2023-09-15T23:00:30.442Z,101315.59
2023-09-15T23:02:56.955Z,101320.59
2023-09-15T23:05:23.375Z,101330.94
2023-09-15T23:07:49.778Z,101325.53
2023-09-15T23:10:17.255Z,101327.06
2023-09-15T23:12:45.289Z,101326.97
2023-09-15T23:15:11.939Z,101330.22
2023-09-15T23:17:38.565Z,101342.09
2023-09-15T23:20:06.300Z,101334.19
2023-09-15T23:22:32.797Z,101335.78
2023-09-15T23:24:59.491Z,101337.38
2023-09-15T23:27:28.661Z,101338.94
2023-09-15T23:29:56.729Z,101338.00
2023-09-15T23:32:23.686Z,101334.44
2023-09-15T23:34:50.229Z,101337.91
2023-09-15T23:37:17.485Z,101335.34
2023-09-15T23:39:43.898Z,101333.50
2023-09-15T23:42:10.961Z,101332.47
2023-09-15T23:44:37.772Z,101333.44
2023-09-15T23:47:04.328Z,101336.13
2023-09-15T23:49:31.012Z,101327.25
2023-09-15T23:51:57.447Z,101338.06
2023-09-15T23:54:23.830Z,101327.56
2023-09-15T23:56:50.277Z,101328.41
2023-09-15T23:59:16.867Z,101329.13
